Time,TemperatureF,DewpointF,PressureIn,WindDirection,WindDirectionDegrees,WindSpeedMPH,WindSpeedGustMPH,Humidity,HourlyPrecipIn,Conditions,Clouds,dailyrainin,SoftwareType,DateUTC
2013-03-16 00:04:00,33.1,32.8,28.75,NW,315,9.2,9.2,99,0.00,,,0.00,WeatherDisplay:10.37,2013-03-16 05:04:00,
2013-03-16 00:09:00,32.9,32.7,28.74,NW,315,9.2,9.2,99,0.00,,,0.00,WeatherDisplay:10.37,2013-03-16 05:09:00,
2013-03-16 00:14:00,32.9,32.7,28.75,NW,315,10.4,10.4,99,0.00,,,0.00,WeatherDisplay:10.37,2013-03-16 05:14:00,
2013-03-16 00:19:00,32.7,32.5,28.75,North,0,10.4,10.4,99,0.00,,,0.00,WeatherDisplay:10.37,2013-03-16 05:19:00,
2013-03-16 00:24:00,32.7,32.5,28.75,NW,315,10.4,10.4,99,0.00,,,0.00,WeatherDisplay:10.37,2013-03-16 05:24:00,
2013-03-16 00:29:00,32.7,32.5,28.75,NW,315,9.2,9.2,99,0.00,,,0.00,WeatherDisplay:10.37,2013-03-16 05:29:00,
2013-03-16 00:35:00,32.7,32.5,28.75,North,0,10.4,10.4,99,0.00,,,0.00,WeatherDisplay:10.37,2013-03-16 05:35:00,
2013-03-16 00:40:00,32.7,32.5,28.75,NW,315,8.1,8.1,99,0.00,,,0.00,WeatherDisplay:10.37,2013-03-16 05:40:00,
2013-03-16 00:45:00,32.7,32.5,28.75,NW,315,6.9,6.9,99,0.00,,,0.00,WeatherDisplay:10.37,2013-03-16 05:45:00,
2013-03-16 00:50:00,32.5,32.3,28.75,North,0,8.1,8.1,99,0.00,,,0.00,WeatherDisplay:10.37,2013-03-16 05:50:00,
2013-03-16 00:55:00,32.5,32.3,28.75,NW,315,8.1,8.1,99,0.00,,,0.00,WeatherDisplay:10.37,2013-03-16 05:55:00,
2013-03-16 01:01:00,32.4,32.1,28.75,NNW,338,8.1,8.1,99,0.00,,,0.00,WeatherDisplay:10.37,2013-03-16 06:01:00,
2013-03-16 01:06:00,32.4,32.1,28.75,NNW,338,5.8,5.8,99,0.00,,,0.00,WeatherDisplay:10.37,2013-03-16 06:06:00,
2013-03-16 01:11:00,32.0,31.8,28.75,NW,315,10.4,10.4,99,0.00,,,0.00,WeatherDisplay:10.37,2013-03-16 06:11:00,
2013-03-16 01:17:00,31.8,31.6,28.76,North,0,10.4,10.4,99,0.00,,,0.00,WeatherDisplay:10.37,2013-03-16 06:17:00,
2013-03-16 01:22:00,31.6,31.4,28.75,North,0,6.9,6.9,99,0.00,,,0.00,WeatherDisplay:10.37,2013-03-16 06:22:00,
2013-03-16 01:27:00,31.6,31.4,28.75,NW,315,9.2,9.2,99,0.00,,,0.00,WeatherDisplay:10.37,2013-03-16 06:27:00,
2013-03-16 01:32:00,31.5,31.0,28.76,North,0,13.8,13.8,98,0.00,,,0.00,WeatherDisplay:10.37,2013-03-16 06:32:00,
2013-03-16 01:38:00,31.5,31.0,28.76,NW,315,9.2,9.2,98,0.00,,,0.00,WeatherDisplay:10.37,2013-03-16 06:38:00,
2013-03-16 01:43:00,31.3,30.8,28.76,NW,315,10.4,10.4,98,0.00,,,0.00,WeatherDisplay:10.37,2013-03-16 06:43:00,
2013-03-16 01:48:00,31.3,30.5,28.76,NW,315,11.5,11.5,97,0.00,,,0.00,WeatherDisplay:10.37,2013-03-16 06:48:00,
2013-03-16 01:53:00,31.3,30.8,28.76,NW,315,12.7,12.7,98,0.00,,,0.00,WeatherDisplay:10.37,2013-03-16 06:53:00,
2013-03-16 01:58:00,31.1,30.6,28.77,NW,315,10.4,10.4,98,0.00,,,0.00,WeatherDisplay:10.37,2013-03-16 06:58:00,
2013-03-16 02:03:00,31.1,30.6,28.78,NW,315,10.4,10.4,98,0.00,,,0.00,WeatherDisplay:10.37,2013-03-16 07:03:00,
2013-03-16 02:09:00,30.9,30.2,28.78,NW,315,10.4,10.4,97,0.00,,,0.00,WeatherDisplay:10.37,2013-03-16 07:09:00,
2013-03-16 02:14:00,30.6,29.8,28.78,NW,315,10.4,10.4,97,0.00,,,0.00,WeatherDisplay:10.37,2013-03-16 07:14:00,
2013-03-16 02:19:00,30.7,30.0,28.79,NW,315,10.4,10.4,97,0.00,,,0.00,WeatherDisplay:10.37,2013-03-16 07:19:00,
2013-03-16 02:24:00,30.4,29.4,28.79,NW,315,11.5,11.5,96,0.00,,,0.00,WeatherDisplay:10.37,2013-03-16 07:24:00,
2013-03-16 02:29:00,30.4,29.6,28.80,NW,315,9.2,9.2,97,0.00,,,0.00,WeatherDisplay:10.37,2013-03-16 07:29:00,
2013-03-16 02:34:00,30.4,29.6,28.80,North,0,10.4,10.4,97,0.00,,,0.00,WeatherDisplay:10.37,2013-03-16 07:34:00,
2013-03-16 02:39:00,30.4,29.6,28.80,North,0,10.4,10.4,97,0.00,,,0.00,WeatherDisplay:10.37,2013-03-16 07:39:00,
2013-03-16 02:45:00,30.2,29.5,28.80,NNW,342,7.0,13.0,97,0.00,,,0.00,WeatherDisplay:10.37,2013-03-16 07:45:00,
2013-03-16 02:50:00,30.2,29.5,28.80,North,0,8.1,8.1,97,0.00,,,0.00,WeatherDisplay:10.37,2013-03-16 07:50:00,
2013-03-16 02:55:00,30.0,29.0,28.80,North,0,11.5,11.5,96,0.00,,,0.00,WeatherDisplay:10.37,2013-03-16 07:55:00,
2013-03-16 03:00:00,29.8,28.8,28.81,North,0,9.2,9.2,96,0.00,,,0.00,WeatherDisplay:10.37,2013-03-16 08:00:00,
2013-03-16 03:05:00,29.8,28.8,28.81,North,0,10.7,10.7,96,0.00,,,0.00,WeatherDisplay:10.37,2013-03-16 08:05:00,
2013-03-16 03:10:00,29.8,28.6,28.81,NW,315,10.4,10.4,95,0.00,,,0.00,WeatherDisplay:10.37,2013-03-16 08:10:00,
2013-03-16 03:15:00,29.7,28.4,28.81,North,0,12.7,12.7,95,0.00,,,0.00,WeatherDisplay:10.37,2013-03-16 08:15:00,
2013-03-16 03:21:00,29.7,28.1,28.82,NW,315,10.4,10.4,94,0.00,,,0.00,WeatherDisplay:10.37,2013-03-16 08:21:00,
2013-03-16 03:26:00,29.3,27.5,28.82,North,0,13.8,13.8,93,0.00,,,0.00,WeatherDisplay:10.37,2013-03-16 08:26:00,
2013-03-16 03:31:00,29.1,27.3,28.82,NW,315,12.7,12.7,93,0.00,,,0.00,WeatherDisplay:10.37,2013-03-16 08:31:00,
2013-03-16 03:36:00,28.9,27.2,28.82,NW,315,10.4,10.4,93,0.00,,,0.00,WeatherDisplay:10.37,2013-03-16 08:36:00,
2013-03-16 03:41:00,28.6,26.6,28.82,WNW,292,11.5,11.5,92,0.00,,,0.00,WeatherDisplay:10.37,2013-03-16 08:41:00,
2013-03-16 03:47:00,28.2,26.2,28.83,North,0,15.0,15.0,92,0.00,,,0.00,WeatherDisplay:10.37,2013-03-16 08:47:00,
2013-03-16 03:52:00,28.0,26.3,28.83,NW,315,10.4,10.4,93,0.00,,,0.00,WeatherDisplay:10.37,2013-03-16 08:52:00,
2013-03-16 03:57:00,27.7,25.9,28.83,NW,315,16.1,16.1,93,0.00,,,0.00,WeatherDisplay:10.37,2013-03-16 08:57:00,
2013-03-16 04:02:00,27.7,25.9,28.83,North,0,10.4,10.4,93,0.00,,,0.00,WeatherDisplay:10.37,2013-03-16 09:02:00,
2013-03-16 04:07:00,27.5,25.7,28.84,SW,225,11.5,11.5,93,0.00,,,0.00,WeatherDisplay:10.37,2013-03-16 09:07:00,
2013-03-16 04:13:00,27.3,25.6,28.84,WNW,292,15.0,15.0,93,0.00,,,0.00,WeatherDisplay:10.37,2013-03-16 09:13:00,
2013-03-16 04:18:00,27.3,25.6,28.84,NW,315,12.7,12.7,93,0.00,,,0.00,WeatherDisplay:10.37,2013-03-16 09:18:00,
2013-03-16 04:23:00,27.0,25.2,28.84,NW,315,12.7,12.7,93,0.00,,,0.00,WeatherDisplay:10.37,2013-03-16 09:23:00,
2013-03-16 04:28:00,26.8,25.0,28.85,NW,315,13.8,13.8,93,0.00,,,0.00,WeatherDisplay:10.37,2013-03-16 09:28:00,
2013-03-16 04:33:00,26.6,24.8,28.85,NW,315,10.4,10.4,93,0.00,,,0.00,WeatherDisplay:10.37,2013-03-16 09:33:00,
2013-03-16 04:39:00,26.4,24.7,28.85,NW,315,15.0,15.0,93,0.00,,,0.00,WeatherDisplay:10.37,2013-03-16 09:39:00,
2013-03-16 04:44:00,26.4,24.7,28.86,WNW,292,12.7,12.7,93,0.00,,,0.00,WeatherDisplay:10.37,2013-03-16 09:44:00,
2013-03-16 04:49:00,26.4,24.7,28.86,NW,315,10.4,10.4,93,0.00,,,0.00,WeatherDisplay:10.37,2013-03-16 09:49:00,
2013-03-16 04:54:00,26.2,24.2,28.86,North,0,10.4,10.4,92,0.00,,,0.00,WeatherDisplay:10.37,2013-03-16 09:54:00,
2013-03-16 04:59:00,26.1,24.3,28.86,NW,315,13.8,13.8,93,0.00,,,0.00,WeatherDisplay:10.37,2013-03-16 09:59:00,
2013-03-16 05:04:00,25.9,24.1,28.86,NW,315,9.2,9.2,93,0.00,,,0.00,WeatherDisplay:10.37,2013-03-16 10:04:00,
2013-03-16 05:09:00,25.7,24.0,28.87,WNW,292,10.4,10.4,93,0.00,,,0.00,WeatherDisplay:10.37,2013-03-16 10:09:00,
2013-03-16 05:14:00,25.5,23.8,28.87,NW,315,15.0,15.0,93,0.00,,,0.00,WeatherDisplay:10.37,2013-03-16 10:14:00,
2013-03-16 05:20:00,25.5,23.8,28.87,NW,315,10.4,10.4,93,0.00,,,0.00,WeatherDisplay:10.37,2013-03-16 10:20:00,
2013-03-16 05:25:00,25.3,23.6,28.87,North,0,12.7,12.7,93,0.00,,,0.00,WeatherDisplay:10.37,2013-03-16 10:25:00,
2013-03-16 05:30:00,25.3,23.6,28.87,NW,315,11.5,11.5,93,0.00,,,0.00,WeatherDisplay:10.37,2013-03-16 10:30:00,
2013-03-16 05:35:00,25.3,23.3,28.88,North,0,12.7,12.7,92,0.00,,,0.00,WeatherDisplay:10.37,2013-03-16 10:35:00,
2013-03-16 05:40:00,25.2,23.2,28.89,NW,315,12.7,12.7,92,0.00,,,0.00,WeatherDisplay:10.37,2013-03-16 10:40:00,
2013-03-16 05:45:00,25.2,23.2,28.89,NE,45,10.4,10.4,92,0.00,,,0.00,WeatherDisplay:10.37,2013-03-16 10:45:00,
2013-03-16 05:50:00,25.2,23.4,28.90,NW,315,8.1,8.1,93,0.00,,,0.00,WeatherDisplay:10.37,2013-03-16 10:50:00,
2013-03-16 05:55:00,25.2,23.2,28.90,WNW,292,8.1,8.1,92,0.00,,,0.00,WeatherDisplay:10.37,2013-03-16 10:55:00,
2013-03-16 06:00:00,25.2,23.2,28.90,NW,315,10.4,10.4,92,0.00,,,0.00,WeatherDisplay:10.37,2013-03-16 11:00:00,
2013-03-16 06:06:00,25.2,23.2,28.90,NW,315,6.0,6.0,92,0.00,,,0.00,WeatherDisplay:10.37,2013-03-16 11:06:00,
2013-03-16 06:11:00,24.6,22.4,28.90,North,0,15.0,15.0,91,0.00,,,0.00,WeatherDisplay:10.37,2013-03-16 11:11:00,
2013-03-16 06:16:00,24.4,22.5,28.91,NW,315,11.5,11.5,92,0.00,,,0.00,WeatherDisplay:10.37,2013-03-16 11:16:00,
2013-03-16 06:22:00,24.4,22.5,28.91,NW,315,10.4,10.4,92,0.00,,,0.00,WeatherDisplay:10.37,2013-03-16 11:22:00,
2013-03-16 06:27:00,24.3,22.3,28.92,North,0,12.7,12.7,92,0.00,,,0.00,WeatherDisplay:10.37,2013-03-16 11:27:00,
2013-03-16 06:32:00,24.3,22.3,28.92,North,0,12.7,12.7,92,0.00,,,0.00,WeatherDisplay:10.37,2013-03-16 11:32:00,
2013-03-16 06:37:00,24.1,22.1,28.92,North,0,8.1,8.1,92,0.00,,,0.00,WeatherDisplay:10.37,2013-03-16 11:37:00,
2013-03-16 06:42:00,24.1,22.1,28.92,NW,315,11.5,11.5,92,0.00,,,0.00,WeatherDisplay:10.37,2013-03-16 11:42:00,
2013-03-16 06:47:00,24.1,22.1,28.93,North,0,10.4,10.4,92,0.00,,,0.00,WeatherDisplay:10.37,2013-03-16 11:47:00,
2013-03-16 06:53:00,24.1,22.1,28.94,North,0,8.1,8.1,92,0.00,,,0.00,WeatherDisplay:10.37,2013-03-16 11:53:00,
2013-03-16 06:58:00,24.1,22.1,28.94,NNW,338,10.4,10.4,92,0.00,,,0.00,WeatherDisplay:10.37,2013-03-16 11:58:00,
2013-03-16 07:03:00,24.1,22.1,28.94,North,0,10.7,10.7,92,0.00,,,0.00,WeatherDisplay:10.37,2013-03-16 12:03:00,
2013-03-16 07:08:00,23.9,21.9,28.94,NW,315,12.7,12.7,92,0.00,,,0.00,WeatherDisplay:10.37,2013-03-16 12:08:00,
2013-03-16 07:13:00,23.7,21.5,28.94,North,0,10.4,10.4,91,0.00,,,0.00,WeatherDisplay:10.37,2013-03-16 12:13:00,
2013-03-16 07:19:00,23.7,21.5,28.94,NW,315,8.1,8.1,91,0.00,,,0.00,WeatherDisplay:10.37,2013-03-16 12:19:00,
2013-03-16 07:24:00,23.5,21.3,28.94,NW,315,9.2,9.2,91,0.00,,,0.00,WeatherDisplay:10.37,2013-03-16 12:24:00,
2013-03-16 07:29:00,23.5,21.6,28.94,NW,315,11.5,11.5,92,0.00,,,0.00,WeatherDisplay:10.37,2013-03-16 12:29:00,
2013-03-16 07:34:00,23.5,21.6,28.93,NW,315,10.4,10.4,92,0.00,,,0.00,WeatherDisplay:10.37,2013-03-16 12:34:00,
2013-03-16 07:39:00,23.5,21.6,28.94,North,0,9.2,9.2,92,0.00,,,0.00,WeatherDisplay:10.37,2013-03-16 12:39:00,
2013-03-16 07:45:00,23.7,21.7,28.94,NNW,328,3.0,11.0,92,0.00,,,0.00,WeatherDisplay:10.37,2013-03-16 12:45:00,
2013-03-16 07:50:00,23.7,21.7,28.95,NE,45,6.9,6.9,92,0.00,,,0.00,WeatherDisplay:10.37,2013-03-16 12:50:00,
2013-03-16 07:55:00,23.7,21.7,28.95,North,0,9.2,9.2,92,0.00,,,0.00,WeatherDisplay:10.37,2013-03-16 12:55:00,
2013-03-16 08:00:00,23.7,21.5,28.94,NW,315,9.2,9.2,91,0.00,,,0.00,WeatherDisplay:10.37,2013-03-16 13:00:00,
2013-03-16 08:05:00,23.7,21.5,28.95,North,0,8.1,8.1,91,0.00,,,0.00,WeatherDisplay:10.37,2013-03-16 13:05:00,
2013-03-16 08:10:00,23.5,21.3,28.95,North,0,8.1,8.1,91,0.00,,,0.00,WeatherDisplay:10.37,2013-03-16 13:10:00,
2013-03-16 08:15:00,23.4,21.1,28.95,NW,315,10.4,10.4,91,0.00,,,0.00,WeatherDisplay:10.37,2013-03-16 13:15:00,
2013-03-16 08:20:00,23.5,21.3,28.95,North,0,9.2,9.2,91,0.00,,,0.00,WeatherDisplay:10.37,2013-03-16 13:20:00,
2013-03-16 08:26:00,23.5,21.3,28.95,NW,315,9.2,9.2,91,0.00,,,0.00,WeatherDisplay:10.37,2013-03-16 13:26:00,
2013-03-16 08:31:00,23.5,21.0,28.95,NW,315,8.1,8.1,90,0.00,,,0.00,WeatherDisplay:10.37,2013-03-16 13:31:00,
2013-03-16 08:36:00,23.4,20.9,28.96,NW,315,10.4,10.4,90,0.00,,,0.00,WeatherDisplay:10.37,2013-03-16 13:36:00,
2013-03-16 08:41:00,23.4,20.9,28.96,North,0,10.4,10.4,90,0.00,,,0.00,WeatherDisplay:10.37,2013-03-16 13:41:00,
2013-03-16 08:47:00,23.4,20.9,28.96,NW,315,6.9,6.9,90,0.00,,,0.00,WeatherDisplay:10.37,2013-03-16 13:47:00,
2013-03-16 08:52:00,23.5,21.0,28.97,NW,315,10.4,10.4,90,0.00,,,0.00,WeatherDisplay:10.37,2013-03-16 13:52:00,
2013-03-16 08:57:00,23.5,21.0,28.97,North,0,5.8,5.8,90,0.00,,,0.00,WeatherDisplay:10.37,2013-03-16 13:57:00,
2013-03-16 09:03:00,23.4,20.9,28.96,NW,315,8.1,8.1,90,0.00,,,0.00,WeatherDisplay:10.37,2013-03-16 14:03:00,
2013-03-16 09:08:00,23.5,20.8,28.96,North,0,8.1,8.1,89,0.00,,,0.00,WeatherDisplay:10.37,2013-03-16 14:08:00,
2013-03-16 09:13:00,23.7,21.0,28.96,North,0,6.9,6.9,89,0.00,,,0.00,WeatherDisplay:10.37,2013-03-16 14:13:00,
2013-03-16 09:18:00,23.7,20.7,28.96,NW,315,9.2,9.2,88,0.00,,,0.00,WeatherDisplay:10.37,2013-03-16 14:18:00,
2013-03-16 09:23:00,23.9,20.9,28.96,NW,315,8.1,8.1,88,0.00,,,0.00,WeatherDisplay:10.37,2013-03-16 14:23:00,
2013-03-16 09:28:00,24.3,21.2,28.97,North,0,9.8,9.8,88,0.00,,,0.00,WeatherDisplay:10.37,2013-03-16 14:28:00,
2013-03-16 09:33:00,24.3,21.2,28.96,North,0,9.2,9.2,88,0.00,,,0.00,WeatherDisplay:10.37,2013-03-16 14:33:00,
2013-03-16 09:38:00,24.3,21.2,28.97,NW,315,8.1,8.1,88,0.00,,,0.00,WeatherDisplay:10.37,2013-03-16 14:38:00,
2013-03-16 09:43:00,24.6,21.6,28.97,North,0,9.2,9.2,88,0.00,,,0.00,WeatherDisplay:10.37,2013-03-16 14:43:00,
2013-03-16 09:48:00,24.8,21.8,28.97,NW,315,5.8,5.8,88,0.00,,,0.00,WeatherDisplay:10.37,2013-03-16 14:48:00,
2013-03-16 09:53:00,24.8,21.5,28.97,NNW,338,10.4,10.4,87,0.00,,,0.00,WeatherDisplay:10.37,2013-03-16 14:53:00,
2013-03-16 09:59:00,24.8,21.5,28.97,NW,315,8.1,8.1,87,0.00,,,0.00,WeatherDisplay:10.37,2013-03-16 14:59:00,
2013-03-16 10:04:00,24.8,21.5,28.97,NW,315,6.0,6.0,87,0.00,,,0.00,WeatherDisplay:10.37,2013-03-16 15:04:00,
2013-03-16 10:09:00,25.0,21.4,28.97,North,0,5.8,5.8,86,0.00,,,0.00,WeatherDisplay:10.37,2013-03-16 15:09:00,
2013-03-16 10:14:00,25.0,21.1,28.97,North,0,8.1,8.1,85,0.00,,,0.00,WeatherDisplay:10.37,2013-03-16 15:14:00,
2013-03-16 10:20:00,25.2,21.3,28.97,NNW,338,5.8,5.8,85,0.00,,,0.00,WeatherDisplay:10.37,2013-03-16 15:20:00,
2013-03-16 10:25:00,25.5,21.6,28.97,NW,315,5.8,5.8,85,0.00,,,0.00,WeatherDisplay:10.37,2013-03-16 15:25:00,
2013-03-16 10:30:00,25.7,21.5,28.97,North,0,5.8,5.8,84,0.00,,,0.00,WeatherDisplay:10.37,2013-03-16 15:30:00,
2013-03-16 10:35:00,25.9,21.7,28.97,North,0,8.1,8.1,84,0.00,,,0.00,WeatherDisplay:10.37,2013-03-16 15:35:00,
2013-03-16 10:41:00,25.9,21.7,28.98,North,0,7.6,7.6,84,0.00,,,0.00,WeatherDisplay:10.37,2013-03-16 15:41:00,
2013-03-16 10:46:00,25.7,21.5,28.98,NW,315,6.9,6.9,84,0.00,,,0.00,WeatherDisplay:10.37,2013-03-16 15:46:00,
2013-03-16 10:51:00,25.7,21.3,28.98,NW,315,8.1,8.1,83,0.00,,,0.00,WeatherDisplay:10.37,2013-03-16 15:51:00,
2013-03-16 10:56:00,25.9,21.7,28.97,NW,315,8.1,8.1,84,0.00,,,0.00,WeatherDisplay:10.37,2013-03-16 15:56:00,
2013-03-16 11:01:00,26.1,21.9,28.97,NW,315,6.9,6.9,84,0.00,,,0.00,WeatherDisplay:10.37,2013-03-16 16:01:00,
2013-03-16 11:06:00,26.1,21.9,28.98,NW,315,6.9,6.9,84,0.00,,,0.00,WeatherDisplay:10.37,2013-03-16 16:06:00,
2013-03-16 11:11:00,26.8,22.0,28.98,North,0,4.6,4.6,82,0.00,,,0.00,WeatherDisplay:10.37,2013-03-16 16:11:00,
2013-03-16 11:16:00,27.3,22.3,28.98,NW,315,8.1,8.1,81,0.00,,,0.00,WeatherDisplay:10.37,2013-03-16 16:16:00,
2013-03-16 11:22:00,27.5,22.4,28.98,NW,315,5.8,5.8,81,0.00,,,0.00,WeatherDisplay:10.37,2013-03-16 16:22:00,
2013-03-16 11:27:00,28.0,22.4,28.98,North,0,5.8,5.8,79,0.00,,,0.00,WeatherDisplay:10.37,2013-03-16 16:27:00,
2013-03-16 11:32:00,28.4,22.4,28.98,NW,315,5.8,5.8,78,0.00,,,0.00,WeatherDisplay:10.37,2013-03-16 16:32:00,
2013-03-16 11:37:00,28.2,21.3,28.98,NW,315,11.5,11.5,75,0.00,,,0.00,WeatherDisplay:10.37,2013-03-16 16:37:00,
2013-03-16 11:42:00,28.4,21.5,28.99,North,0,5.8,5.8,75,0.00,,,0.00,WeatherDisplay:10.37,2013-03-16 16:42:00,
2013-03-16 11:47:00,29.1,21.9,28.99,NW,315,4.6,4.6,74,0.00,,,0.00,WeatherDisplay:10.37,2013-03-16 16:47:00,
2013-03-16 11:52:00,29.8,22.6,28.98,North,0,8.1,8.1,74,0.00,,,0.00,WeatherDisplay:10.37,2013-03-16 16:52:00,
2013-03-16 11:57:00,30.2,21.9,28.99,North,0,12.7,12.7,71,0.00,,,0.00,WeatherDisplay:10.37,2013-03-16 16:57:00,
2013-03-16 12:02:00,30.6,22.6,28.99,North,0,5.8,5.8,72,0.00,,,0.00,WeatherDisplay:10.37,2013-03-16 17:02:00,
2013-03-16 12:08:00,30.6,22.6,28.99,North,0,5.8,5.8,72,0.00,,,0.00,WeatherDisplay:10.37,2013-03-16 17:08:00,
2013-03-16 12:13:00,30.6,22.3,29.00,NE,45,6.9,6.9,71,0.00,,,0.00,WeatherDisplay:10.37,2013-03-16 17:13:00,
2013-03-16 12:18:00,30.6,22.3,29.00,NW,315,5.8,5.8,71,0.00,,,0.00,WeatherDisplay:10.37,2013-03-16 17:18:00,
2013-03-16 12:23:00,30.4,22.4,29.00,North,0,8.1,8.1,72,0.00,,,0.00,WeatherDisplay:10.37,2013-03-16 17:23:00,
2013-03-16 12:28:00,30.7,22.8,28.99,East,90,10.4,10.4,72,0.00,,,0.00,WeatherDisplay:10.37,2013-03-16 17:28:00,
2013-03-16 12:34:00,32.4,23.7,28.99,NE,45,5.8,5.8,70,0.00,,,0.00,WeatherDisplay:10.37,2013-03-16 17:34:00,
2013-03-16 12:39:00,33.4,23.3,28.98,NNE,22,12.7,12.7,66,0.00,,,0.00,WeatherDisplay:10.37,2013-03-16 17:39:00,
2013-03-16 12:44:00,33.1,22.9,28.98,North,0,10.4,10.4,66,0.00,,,0.00,WeatherDisplay:10.37,2013-03-16 17:44:00,
2013-03-16 12:49:00,33.6,23.5,28.98,North,0,8.1,8.1,66,0.00,,,0.00,WeatherDisplay:10.37,2013-03-16 17:49:00,
2013-03-16 12:55:00,33.3,23.1,28.98,North,0,8.1,8.1,66,0.00,,,0.00,WeatherDisplay:10.37,2013-03-16 17:55:00,
2013-03-16 13:00:00,33.5,23.4,28.98,North,350,2.0,12.0,66,0.00,,,0.00,WeatherDisplay:10.37,2013-03-16 18:00:00,
2013-03-16 13:05:00,34.0,23.8,28.98,NE,45,3.5,3.5,66,0.00,,,0.00,WeatherDisplay:10.37,2013-03-16 18:05:00,
2013-03-16 13:10:00,33.6,23.1,28.98,North,2,15.0,15.0,65,0.00,,,0.00,WeatherDisplay:10.37,2013-03-16 18:10:00,
2013-03-16 13:15:00,34.0,23.1,28.98,North,0,5.8,5.8,64,0.00,,,0.00,WeatherDisplay:10.37,2013-03-16 18:15:00,
2013-03-16 13:20:00,34.9,23.6,28.98,NE,45,8.1,8.1,63,0.00,,,0.00,WeatherDisplay:10.37,2013-03-16 18:20:00,
2013-03-16 13:26:00,34.7,23.4,28.98,North,0,8.1,8.1,63,0.00,,,0.00,WeatherDisplay:10.37,2013-03-16 18:26:00,
2013-03-16 13:31:00,35.1,23.7,28.98,North,0,15.0,15.0,63,0.00,,,0.00,WeatherDisplay:10.37,2013-03-16 18:31:00,
2013-03-16 13:36:00,35.4,24.1,28.98,North,0,6.9,6.9,63,0.00,,,0.00,WeatherDisplay:10.37,2013-03-16 18:36:00,
2013-03-16 13:41:00,35.4,23.7,28.98,North,0,8.1,8.1,62,0.00,,,0.00,WeatherDisplay:10.37,2013-03-16 18:41:00,
2013-03-16 13:46:00,35.4,22.9,28.98,North,0,11.5,11.5,60,0.00,,,0.00,WeatherDisplay:10.37,2013-03-16 18:46:00,
2013-03-16 13:51:00,35.6,23.5,28.98,NNW,338,10.4,10.4,61,0.00,,,0.00,WeatherDisplay:10.37,2013-03-16 18:51:00,
2013-03-16 13:56:00,37.0,25.2,28.98,NW,315,6.9,6.9,62,0.00,,,0.00,WeatherDisplay:10.37,2013-03-16 18:56:00,
2013-03-16 14:01:00,37.0,24.8,28.98,NW,315,8.1,8.1,61,0.00,,,0.00,WeatherDisplay:10.37,2013-03-16 19:01:00,
2013-03-16 14:06:00,37.2,24.6,28.97,NW,315,9.2,9.2,60,0.00,,,0.00,WeatherDisplay:10.37,2013-03-16 19:06:00,
2013-03-16 14:11:00,36.5,23.1,28.97,North,0,8.1,8.1,58,0.00,,,0.00,WeatherDisplay:10.37,2013-03-16 19:11:00,
2013-03-16 14:16:00,35.8,22.8,28.97,NE,45,13.8,13.8,59,0.00,,,0.00,WeatherDisplay:10.37,2013-03-16 19:16:00,
2013-03-16 14:21:00,35.8,22.8,28.97,NE,45,10.4,10.4,59,0.00,,,0.00,WeatherDisplay:10.37,2013-03-16 19:21:00,
2013-03-16 14:27:00,34.9,23.9,28.96,North,0,8.1,8.1,64,0.00,,,0.00,WeatherDisplay:10.37,2013-03-16 19:27:00,
2013-03-16 14:32:00,35.1,22.2,28.96,West,270,8.1,8.1,59,0.00,,,0.00,WeatherDisplay:10.37,2013-03-16 19:32:00,
2013-03-16 14:37:00,35.1,23.0,28.96,North,0,6.9,6.9,61,0.00,,,0.00,WeatherDisplay:10.37,2013-03-16 19:37:00,
2013-03-16 14:42:00,36.3,24.1,28.95,NE,45,3.5,3.5,61,0.00,,,0.00,WeatherDisplay:10.37,2013-03-16 19:42:00,
2013-03-16 14:47:00,36.3,22.5,28.94,NNE,22,11.5,11.5,57,0.00,,,0.00,WeatherDisplay:10.37,2013-03-16 19:47:00,
2013-03-16 14:52:00,35.8,23.6,28.94,NE,45,10.4,10.4,61,0.00,,,0.00,WeatherDisplay:10.37,2013-03-16 19:52:00,
2013-03-16 14:57:00,34.5,24.3,28.94,NNW,338,12.7,12.7,66,0.00,,,0.00,WeatherDisplay:10.37,2013-03-16 19:57:00,
2013-03-16 15:02:00,35.1,23.3,28.94,North,0,12.7,12.7,62,0.00,,,0.00,WeatherDisplay:10.37,2013-03-16 20:02:00,
2013-03-16 15:08:00,35.1,23.3,28.94,North,0,12.7,12.7,62,0.00,,,0.00,WeatherDisplay:10.37,2013-03-16 20:08:00,
2013-03-16 15:13:00,35.4,23.3,28.94,NE,45,10.4,10.4,61,0.00,,,0.00,WeatherDisplay:10.37,2013-03-16 20:13:00,
2013-03-16 15:18:00,35.2,23.1,28.94,North,0,15.0,15.0,61,0.00,,,0.00,WeatherDisplay:10.37,2013-03-16 20:18:00,
2013-03-16 15:23:00,35.1,23.7,28.94,NW,315,12.7,12.7,63,0.00,,,0.00,WeatherDisplay:10.37,2013-03-16 20:23:00,
2013-03-16 15:28:00,35.8,24.0,28.94,NW,315,8.1,8.1,62,0.00,,,0.00,WeatherDisplay:10.37,2013-03-16 20:28:00,
2013-03-16 15:33:00,36.3,23.8,28.94,North,0,10.4,10.4,60,0.00,,,0.00,WeatherDisplay:10.37,2013-03-16 20:33:00,
2013-03-16 15:38:00,37.2,24.2,28.94,NE,45,10.4,10.4,59,0.00,,,0.00,WeatherDisplay:10.37,2013-03-16 20:38:00,
2013-03-16 15:43:00,38.3,24.4,28.94,NNW,338,8.1,8.1,57,0.00,,,0.00,WeatherDisplay:10.37,2013-03-16 20:43:00,
2013-03-16 15:48:00,39.6,24.7,28.93,NE,45,8.1,8.1,55,0.00,,,0.00,WeatherDisplay:10.37,2013-03-16 20:48:00,
2013-03-16 15:53:00,37.9,23.2,28.94,NE,45,15.0,15.0,55,0.00,,,0.00,WeatherDisplay:10.37,2013-03-16 20:53:00,
2013-03-16 15:58:00,35.1,23.0,28.94,North,0,10.4,10.4,61,0.00,,,0.00,WeatherDisplay:10.37,2013-03-16 20:58:00,
2013-03-16 16:03:00,35.4,22.9,28.94,North,0,5.8,5.8,60,0.00,,,0.00,WeatherDisplay:10.37,2013-03-16 21:03:00,
2013-03-16 16:08:00,35.4,22.9,28.94,North,0,5.8,5.8,60,0.00,,,0.00,WeatherDisplay:10.37,2013-03-16 21:08:00,
2013-03-16 16:13:00,34.7,23.4,28.94,North,0,6.9,6.9,63,0.00,,,0.00,WeatherDisplay:10.37,2013-03-16 21:13:00,
2013-03-16 16:19:00,34.2,22.5,28.94,NE,45,11.5,11.5,62,0.00,,,0.00,WeatherDisplay:10.37,2013-03-16 21:19:00,
2013-03-16 16:24:00,34.9,23.6,28.94,NE,45,10.7,10.7,63,0.00,,,0.00,WeatherDisplay:10.37,2013-03-16 21:24:00,
2013-03-16 16:29:00,35.4,23.3,28.94,NE,45,6.9,6.9,61,0.00,,,0.00,WeatherDisplay:10.37,2013-03-16 21:29:00,
2013-03-16 16:34:00,35.2,23.9,28.94,North,0,12.7,12.7,63,0.00,,,0.00,WeatherDisplay:10.37,2013-03-16 21:34:00,
2013-03-16 16:39:00,34.5,22.8,28.94,NE,45,12.7,12.7,62,0.00,,,0.00,WeatherDisplay:10.37,2013-03-16 21:39:00,
2013-03-16 16:44:00,34.0,23.8,28.94,NE,45,11.5,11.5,66,0.00,,,0.00,WeatherDisplay:10.37,2013-03-16 21:44:00,
2013-03-16 16:49:00,34.0,23.8,28.95,North,0,13.8,13.8,66,0.00,,,0.00,WeatherDisplay:10.37,2013-03-16 21:49:00,
2013-03-16 16:55:00,34.2,24.7,28.94,North,0,11.5,11.5,68,0.00,,,0.00,WeatherDisplay:10.37,2013-03-16 21:55:00,
2013-03-16 17:00:00,34.0,23.8,28.94,NW,315,10.4,10.4,66,0.00,,,0.00,WeatherDisplay:10.37,2013-03-16 22:00:00,
2013-03-16 17:05:00,34.0,23.8,28.94,North,0,5.8,5.8,66,0.00,,,0.00,WeatherDisplay:10.37,2013-03-16 22:05:00,
2013-03-16 17:10:00,33.8,23.6,28.95,North,0,8.1,8.1,66,0.00,,,0.00,WeatherDisplay:10.37,2013-03-16 22:10:00,
2013-03-16 17:15:00,33.6,23.1,28.94,NE,45,12.7,12.7,65,0.00,,,0.00,WeatherDisplay:10.37,2013-03-16 22:15:00,
2013-03-16 17:20:00,33.6,23.5,28.94,North,0,10.4,10.4,66,0.00,,,0.00,WeatherDisplay:10.37,2013-03-16 22:20:00,
2013-03-16 17:26:00,33.8,23.6,28.94,North,0,3.5,3.8,66,0.00,,,0.00,WeatherDisplay:10.37,2013-03-16 22:26:00,
2013-03-16 17:31:00,33.8,24.0,28.94,NE,45,12.7,12.7,67,0.00,,,0.00,WeatherDisplay:10.37,2013-03-16 22:31:00,
2013-03-16 17:36:00,33.4,23.3,28.94,North,0,12.7,12.7,66,0.00,,,0.00,WeatherDisplay:10.37,2013-03-16 22:36:00,
2013-03-16 17:41:00,32.9,23.5,28.93,NE,45,15.0,15.0,68,0.00,,,0.00,WeatherDisplay:10.37,2013-03-16 22:41:00,
2013-03-16 17:46:00,32.9,23.5,28.93,NNE,22,12.7,12.7,68,0.00,,,0.00,WeatherDisplay:10.37,2013-03-16 22:46:00,
2013-03-16 17:51:00,32.9,23.1,28.94,NE,45,11.5,11.5,67,0.00,,,0.00,WeatherDisplay:10.37,2013-03-16 22:51:00,
2013-03-16 17:56:00,32.7,23.0,28.93,North,0,12.7,12.7,67,0.00,,,0.00,WeatherDisplay:10.37,2013-03-16 22:56:00,
2013-03-16 18:01:00,32.7,23.0,28.93,North,0,13.8,13.8,67,0.00,,,0.00,WeatherDisplay:10.37,2013-03-16 23:01:00,
2013-03-16 18:06:00,32.7,23.0,28.93,North,0,11.5,11.5,67,0.00,,,0.00,WeatherDisplay:10.37,2013-03-16 23:06:00,
2013-03-16 18:11:00,32.4,22.6,28.94,North,0,10.4,10.4,67,0.00,,,0.00,WeatherDisplay:10.37,2013-03-16 23:11:00,
2013-03-16 18:17:00,32.4,23.0,28.94,NNE,22,9.2,9.2,68,0.00,,,0.00,WeatherDisplay:10.37,2013-03-16 23:17:00,
2013-03-16 18:22:00,32.5,23.1,28.94,NE,45,10.4,10.4,68,0.00,,,0.00,WeatherDisplay:10.37,2013-03-16 23:22:00,
2013-03-16 18:27:00,32.4,23.0,28.93,NE,45,15.0,15.0,68,0.00,,,0.00,WeatherDisplay:10.37,2013-03-16 23:27:00,
2013-03-16 18:32:00,32.2,23.8,28.93,NE,45,8.1,8.1,71,0.00,,,0.00,WeatherDisplay:10.37,2013-03-16 23:32:00,
2013-03-16 18:37:00,31.8,23.5,28.93,NE,45,12.7,12.7,71,0.00,,,0.00,WeatherDisplay:10.37,2013-03-16 23:37:00,
2013-03-16 18:43:00,31.8,23.1,28.93,NE,45,12.7,12.7,70,0.00,,,0.00,WeatherDisplay:10.37,2013-03-16 23:43:00,
2013-03-16 18:48:00,31.5,23.8,28.93,NE,45,11.5,11.5,73,0.00,,,0.00,WeatherDisplay:10.37,2013-03-16 23:48:00,
2013-03-16 18:53:00,31.3,23.6,28.93,NE,45,10.4,10.4,73,0.00,,,0.00,WeatherDisplay:10.37,2013-03-16 23:53:00,
2013-03-16 18:58:00,31.1,23.8,28.94,NE,45,15.0,15.0,74,0.00,,,0.00,WeatherDisplay:10.37,2013-03-16 23:58:00,
2013-03-16 19:04:00,30.9,23.6,28.94,NE,45,13.8,13.8,74,0.00,,,0.00,WeatherDisplay:10.37,2013-03-17 00:04:00,
2013-03-16 19:09:00,30.6,23.9,28.94,NE,45,13.8,13.8,76,0.00,,,0.00,WeatherDisplay:10.37,2013-03-17 00:09:00,
2013-03-16 19:14:00,30.4,24.0,28.95,NE,45,11.5,11.5,77,0.00,,,0.00,WeatherDisplay:10.37,2013-03-17 00:14:00,
2013-03-16 19:19:00,30.2,23.9,28.96,NE,45,10.4,10.4,77,0.00,,,0.00,WeatherDisplay:10.37,2013-03-17 00:19:00,
2013-03-16 19:24:00,30.0,23.7,28.96,NE,45,10.4,10.4,77,0.00,,,0.00,WeatherDisplay:10.37,2013-03-17 00:24:00,
2013-03-16 19:30:00,29.8,23.5,28.97,NE,45,10.4,10.4,77,0.00,,,0.00,WeatherDisplay:10.37,2013-03-17 00:30:00,
2013-03-16 19:35:00,29.7,23.0,28.97,NE,45,9.2,9.2,76,0.00,,,0.00,WeatherDisplay:10.37,2013-03-17 00:35:00,
2013-03-16 19:40:00,29.7,23.3,28.98,NE,45,10.4,10.4,77,0.00,,,0.00,WeatherDisplay:10.37,2013-03-17 00:40:00,
2013-03-16 19:45:00,29.5,23.2,28.98,NE,45,9.2,9.2,77,0.00,,,0.00,WeatherDisplay:10.37,2013-03-17 00:45:00,
2013-03-16 19:50:00,29.5,23.8,28.98,NE,45,9.2,9.2,79,0.00,,,0.00,WeatherDisplay:10.37,2013-03-17 00:50:00,
2013-03-16 19:55:00,29.3,23.3,28.98,NE,45,10.4,10.4,78,0.00,,,0.00,WeatherDisplay:10.37,2013-03-17 00:55:00,
2013-03-16 20:00:00,29.3,23.0,28.99,NE,45,10.4,10.4,77,0.00,,,0.00,WeatherDisplay:10.37,2013-03-17 01:00:00,
2013-03-16 20:05:00,29.1,22.8,28.98,NE,45,10.4,10.4,77,0.00,,,0.00,WeatherDisplay:10.37,2013-03-17 01:05:00,
2013-03-16 20:11:00,29.1,22.8,28.99,NE,45,10.4,10.4,77,0.00,,,0.00,WeatherDisplay:10.37,2013-03-17 01:11:00,
2013-03-16 20:16:00,28.9,22.9,28.99,NE,45,10.4,10.4,78,0.00,,,0.00,WeatherDisplay:10.37,2013-03-17 01:16:00,
2013-03-16 20:21:00,28.9,22.6,29.00,NE,45,12.7,12.7,77,0.00,,,0.00,WeatherDisplay:10.37,2013-03-17 01:21:00,
2013-03-16 20:27:00,28.8,22.8,29.00,NE,45,12.7,12.7,78,0.00,,,0.00,WeatherDisplay:10.37,2013-03-17 01:27:00,
2013-03-16 20:32:00,28.8,22.8,29.00,NE,45,10.4,10.4,78,0.00,,,0.00,WeatherDisplay:10.37,2013-03-17 01:32:00,
2013-03-16 20:37:00,28.8,22.8,29.00,NE,45,10.4,10.4,78,0.00,,,0.00,WeatherDisplay:10.37,2013-03-17 01:37:00,
2013-03-16 20:42:00,28.8,22.8,29.00,NE,45,10.4,10.4,78,0.00,,,0.00,WeatherDisplay:10.37,2013-03-17 01:42:00,
2013-03-16 20:47:00,28.6,22.6,29.00,NE,45,11.5,11.5,78,0.00,,,0.00,WeatherDisplay:10.37,2013-03-17 01:47:00,
2013-03-16 20:52:00,28.6,22.9,29.01,NE,45,11.5,11.5,79,0.00,,,0.00,WeatherDisplay:10.37,2013-03-17 01:52:00,
2013-03-16 20:57:00,28.4,22.7,29.00,NE,45,12.7,12.7,79,0.00,,,0.00,WeatherDisplay:10.37,2013-03-17 01:57:00,
2013-03-16 21:03:00,28.4,22.4,29.01,NE,45,9.2,9.2,78,0.00,,,0.00,WeatherDisplay:10.37,2013-03-17 02:03:00,
2013-03-16 21:08:00,28.4,22.7,29.00,NE,45,9.2,9.2,79,0.00,,,0.00,WeatherDisplay:10.37,2013-03-17 02:08:00,
2013-03-16 21:13:00,28.2,22.2,29.00,NE,45,11.5,11.5,78,0.00,,,0.00,WeatherDisplay:10.37,2013-03-17 02:13:00,
2013-03-16 21:18:00,28.2,22.5,29.01,SW,225,10.4,10.4,79,0.00,,,0.00,WeatherDisplay:10.37,2013-03-17 02:18:00,
2013-03-16 21:23:00,28.0,22.4,29.01,NE,45,12.7,12.7,79,0.00,,,0.00,WeatherDisplay:10.37,2013-03-17 02:23:00,
2013-03-16 21:29:00,28.0,22.7,29.01,NE,45,10.4,10.4,80,0.00,,,0.00,WeatherDisplay:10.37,2013-03-17 02:29:00,
2013-03-16 21:34:00,28.0,22.4,29.01,NE,45,12.7,12.7,79,0.00,,,0.00,WeatherDisplay:10.37,2013-03-17 02:34:00,
2013-03-16 21:39:00,27.9,22.2,29.01,NE,45,10.4,10.7,79,0.00,,,0.00,WeatherDisplay:10.37,2013-03-17 02:39:00,
2013-03-16 21:44:00,27.7,22.0,29.01,NE,45,12.7,12.7,79,0.00,,,0.00,WeatherDisplay:10.37,2013-03-17 02:44:00,
2013-03-16 21:49:00,27.7,22.3,29.01,NE,45,10.4,10.4,80,0.00,,,0.00,WeatherDisplay:10.37,2013-03-17 02:49:00,
2013-03-16 21:55:00,27.7,22.0,29.01,NE,45,11.5,11.5,79,0.00,,,0.00,WeatherDisplay:10.37,2013-03-17 02:55:00,
2013-03-16 22:00:00,27.7,22.3,29.01,NE,45,12.7,12.7,80,0.00,,,0.00,WeatherDisplay:10.37,2013-03-17 03:00:00,
2013-03-16 22:05:00,27.7,22.3,29.02,NE,45,12.7,12.7,80,0.00,,,0.00,WeatherDisplay:10.37,2013-03-17 03:05:00,
2013-03-16 22:10:00,27.3,22.3,29.02,NE,45,10.4,10.4,81,0.00,,,0.00,WeatherDisplay:10.37,2013-03-17 03:10:00,
2013-03-16 22:15:00,27.3,22.3,29.02,NE,45,9.2,9.2,81,0.00,,,0.00,WeatherDisplay:10.37,2013-03-17 03:15:00,
2013-03-16 22:20:00,27.1,22.1,29.02,NE,45,11.5,11.5,81,0.00,,,0.00,WeatherDisplay:10.37,2013-03-17 03:20:00,
2013-03-16 22:26:00,27.1,22.1,29.02,NE,45,13.8,13.8,81,0.00,,,0.00,WeatherDisplay:10.37,2013-03-17 03:26:00,
2013-03-16 22:31:00,26.8,21.7,29.02,NE,45,13.8,13.8,81,0.00,,,0.00,WeatherDisplay:10.37,2013-03-17 03:31:00,
2013-03-16 22:36:00,26.6,21.6,29.02,NE,45,11.5,11.5,81,0.00,,,0.00,WeatherDisplay:10.37,2013-03-17 03:36:00,
2013-03-16 22:41:00,26.6,21.6,29.02,East,90,12.7,12.7,81,0.00,,,0.00,WeatherDisplay:10.37,2013-03-17 03:41:00,
2013-03-16 22:46:00,26.6,21.8,29.02,NE,45,10.4,10.4,82,0.00,,,0.00,WeatherDisplay:10.37,2013-03-17 03:46:00,
2013-03-16 22:51:00,26.4,21.4,29.01,NE,45,12.7,12.7,81,0.00,,,0.00,WeatherDisplay:10.37,2013-03-17 03:51:00,
2013-03-16 22:57:00,26.2,21.2,29.02,NE,45,13.8,13.8,81,0.00,,,0.00,WeatherDisplay:10.37,2013-03-17 03:57:00,
2013-03-16 23:00:00,26.2,21.5,29.02,NE,54,9.0,14.0,82,0.00,,,0.00,WeatherDisplay:10.37,2013-03-17 04:00:00,
2013-03-16 23:01:00,26.2,21.2,29.02,NE,45,12.7,12.7,81,0.00,,,0.00,WeatherDisplay:10.37,2013-03-17 04:01:00,
2013-03-16 23:06:00,26.2,21.2,29.02,NE,45,11.5,11.5,81,0.00,,,0.00,WeatherDisplay:10.37,2013-03-17 04:06:00,
2013-03-16 23:12:00,25.9,20.6,29.02,NE,45,15.0,15.0,80,0.00,,,0.00,WeatherDisplay:10.37,2013-03-17 04:12:00,
2013-03-16 23:17:00,25.9,20.9,29.02,NE,45,12.7,12.7,81,0.00,,,0.00,WeatherDisplay:10.37,2013-03-17 04:17:00,
2013-03-16 23:22:00,25.9,20.9,29.02,NE,45,11.4,11.4,81,0.00,,,0.00,WeatherDisplay:10.37,2013-03-17 04:22:00,
2013-03-16 23:27:00,25.7,20.4,29.02,NE,45,11.5,11.5,80,0.00,,,0.00,WeatherDisplay:10.37,2013-03-17 04:27:00,
2013-03-16 23:32:00,25.7,20.7,29.02,NE,45,10.4,10.4,81,0.00,,,0.00,WeatherDisplay:10.37,2013-03-17 04:32:00,
2013-03-16 23:37:00,25.7,20.7,29.02,East,90,12.7,12.7,81,0.00,,,0.00,WeatherDisplay:10.37,2013-03-17 04:37:00,
2013-03-16 23:42:00,25.5,20.5,29.02,NE,45,12.7,12.7,81,0.00,,,0.00,WeatherDisplay:10.37,2013-03-17 04:42:00,
2013-03-16 23:47:00,25.5,20.5,29.02,East,90,10.4,10.4,81,0.00,,,0.00,WeatherDisplay:10.37,2013-03-17 04:47:00,
2013-03-16 23:52:00,25.5,20.5,29.02,NE,45,12.7,12.7,81,0.00,,,0.00,WeatherDisplay:10.37,2013-03-17 04:52:00,
2013-03-16 23:57:00,25.3,20.0,29.02,NE,45,12.7,12.7,80,0.00,,,0.00,WeatherDisplay:10.37,2013-03-17 04:57:00,